createdAt,value
2019-06-01T00:00:17.640Z,17.12
2019-06-01T00:02:54.363Z,17.17
2019-06-01T00:05:16.553Z,17.26
2019-06-01T00:07:45.026Z,17.23
2019-06-01T00:10:14.393Z,17.21
2019-06-01T00:12:43.495Z,17.06
2019-06-01T00:15:12.475Z,17.12
2019-06-01T00:17:41.869Z,17.18
2019-06-01T00:20:10.733Z,17.16
2019-06-01T00:22:39.220Z,17.02
2019-06-01T00:25:07.788Z,17.00
2019-06-01T00:27:36.263Z,16.92
2019-06-01T00:30:05.366Z,17.08
2019-06-01T00:32:33.943Z,16.87
2019-06-01T00:35:02.463Z,17.10
2019-06-01T00:37:30.927Z,17.11
2019-06-01T00:39:59.422Z,17.24
2019-06-01T00:42:27.898Z,17.48
2019-06-01T00:44:56.498Z,17.50
2019-06-01T00:47:25.076Z,17.53
2019-06-01T00:49:53.548Z,17.25
2019-06-01T00:52:22.033Z,17.20
2019-06-01T00:54:51.695Z,16.96
2019-06-01T00:57:22.219Z,17.02
2019-06-01T00:59:53.184Z,17.04
2019-06-01T01:02:22.945Z,16.91
2019-06-01T01:05:01.476Z,17.04
2019-06-01T01:07:29.991Z,17.21
2019-06-01T01:09:58.572Z,17.08
2019-06-01T01:12:27.058Z,17.05
2019-06-01T01:14:55.639Z,17.14
2019-06-01T01:17:24.113Z,17.08
2019-06-01T01:19:53.910Z,16.82
2019-06-01T01:22:22.475Z,17.04
2019-06-01T01:24:50.984Z,17.05
2019-06-01T01:27:19.447Z,17.06
2019-06-01T01:29:48.983Z,17.25
2019-06-01T01:32:17.612Z,16.87
2019-06-01T01:34:47.377Z,16.90
2019-06-01T01:37:15.952Z,16.87
2019-06-01T01:39:44.430Z,16.92
2019-06-01T01:42:13.020Z,16.90
2019-06-01T01:44:41.511Z,16.79
2019-06-01T01:47:09.994Z,16.84
2019-06-01T01:49:38.569Z,16.95
2019-06-01T01:52:07.148Z,16.99
2019-06-01T01:54:35.615Z,16.81
2019-06-01T01:57:07.129Z,16.80
2019-06-01T01:59:34.378Z,16.71
2019-06-01T02:02:03.079Z,16.94
2019-06-01T02:04:31.826Z,16.84
2019-06-01T02:07:00.433Z,17.20
2019-06-01T02:09:28.979Z,16.99
2019-06-01T02:11:57.723Z,16.84
2019-06-01T02:14:26.377Z,16.84
2019-06-01T02:16:56.120Z,16.88
2019-06-01T02:19:24.917Z,16.84
2019-06-01T02:21:54.389Z,16.52
2019-06-01T02:24:23.007Z,16.61
2019-06-01T02:26:52.944Z,16.87
2019-06-01T02:29:22.378Z,16.62
2019-06-01T02:31:50.877Z,16.69
2019-06-01T02:34:19.557Z,16.98
2019-06-01T02:36:47.981Z,16.93
2019-06-01T02:39:16.531Z,16.80
2019-06-01T02:41:45.315Z,16.59
2019-06-01T02:44:13.775Z,16.73
2019-06-01T02:46:42.372Z,16.75
2019-06-01T02:49:10.964Z,16.64
2019-06-01T02:51:39.321Z,16.64
2019-06-01T02:54:07.910Z,16.70
2019-06-01T02:56:36.490Z,16.61
2019-06-01T02:59:06.802Z,16.63
2019-06-01T03:01:37.364Z,16.88
2019-06-01T03:04:08.607Z,16.78
2019-06-01T03:06:40.056Z,16.82
2019-06-01T03:09:09.272Z,16.96
2019-06-01T03:11:38.845Z,16.97
2019-06-01T03:14:09.335Z,16.80
2019-06-01T03:16:40.228Z,16.89
2019-06-01T03:19:09.105Z,16.99
2019-06-01T03:21:37.689Z,16.88
2019-06-01T03:24:10.626Z,16.90
2019-06-01T03:26:44.588Z,17.08
2019-06-01T03:29:15.619Z,16.94
2019-06-01T03:31:44.437Z,16.82
2019-06-01T03:34:14.010Z,16.84
2019-06-01T03:36:42.846Z,16.81
2019-06-01T03:39:12.883Z,16.98
2019-06-01T03:41:41.737Z,16.88
2019-06-01T03:44:10.212Z,16.84
2019-06-01T03:46:38.693Z,17.00
2019-06-01T03:49:07.716Z,16.98
2019-06-01T03:51:36.374Z,16.94
2019-06-01T03:54:06.443Z,17.00
2019-06-01T03:56:35.248Z,16.95
2019-06-01T03:59:05.002Z,17.03
2019-06-01T04:01:33.755Z,17.06
2019-06-01T04:04:03.083Z,17.02
2019-06-01T04:06:31.708Z,16.95
2019-06-01T04:09:01.590Z,17.00
2019-06-01T04:11:30.442Z,17.21
2019-06-01T04:13:58.949Z,16.91
2019-06-01T04:16:27.557Z,16.86
2019-06-01T04:18:56.045Z,16.84
2019-06-01T04:21:24.628Z,16.92
2019-06-01T04:23:53.133Z,16.87
2019-06-01T04:26:21.630Z,16.83
2019-06-01T04:28:50.109Z,16.77
2019-06-01T04:31:18.592Z,16.98
2019-06-01T04:33:47.070Z,16.78
2019-06-01T04:36:15.583Z,17.15
2019-06-01T04:38:44.170Z,17.01
2019-06-01T04:41:13.974Z,17.24
2019-06-01T04:43:42.928Z,17.38
2019-06-01T04:46:12.331Z,17.42
2019-06-01T04:48:41.221Z,17.38
2019-06-01T04:51:11.751Z,17.61
2019-06-01T04:53:40.046Z,17.78
2019-06-01T04:56:09.036Z,17.60
2019-06-01T04:58:37.834Z,17.70
2019-06-01T05:01:06.940Z,17.73
2019-06-01T05:03:35.611Z,17.81
2019-06-01T05:06:05.036Z,17.82
2019-06-01T05:08:33.739Z,17.82
2019-06-01T05:11:05.334Z,17.86
2019-06-01T05:13:32.895Z,17.98
2019-06-01T05:16:01.534Z,18.25
2019-06-01T05:18:30.029Z,18.07
2019-06-01T05:20:58.630Z,18.24
2019-06-01T05:23:27.273Z,18.42
2019-06-01T05:25:55.753Z,18.56
2019-06-01T05:28:24.353Z,18.52
2019-06-01T05:30:52.828Z,18.66
2019-06-01T05:33:36.509Z,18.65
2019-06-01T05:35:51.930Z,18.84
2019-06-01T05:38:20.353Z,18.84
2019-06-01T05:40:48.853Z,18.83
2019-06-01T05:43:19.336Z,18.97
2019-06-01T05:45:48.117Z,18.93
2019-06-01T05:48:23.611Z,19.03
2019-06-01T05:50:47.123Z,19.09
2019-06-01T05:53:16.753Z,18.96
2019-06-01T05:55:45.322Z,18.98
2019-06-01T05:58:15.113Z,19.05
2019-06-01T06:00:43.821Z,19.33
2019-06-01T06:03:15.339Z,19.17
2019-06-01T06:05:42.817Z,19.26
2019-06-01T06:08:12.723Z,19.40
2019-06-01T06:10:41.702Z,19.27
2019-06-01T06:13:11.106Z,19.18
2019-06-01T06:15:39.801Z,19.27
2019-06-01T06:18:08.277Z,19.26
2019-06-01T06:20:36.772Z,19.10
2019-06-01T06:23:05.346Z,19.42
2019-06-01T06:25:35.752Z,19.49
2019-06-01T06:28:04.349Z,19.60
2019-06-01T06:30:33.411Z,19.68
2019-06-01T06:33:02.336Z,19.83
2019-06-01T06:35:30.972Z,19.83
2019-06-01T06:37:59.568Z,19.72
2019-06-01T06:40:28.076Z,19.73
2019-06-01T06:42:56.456Z,19.82
2019-06-01T06:45:25.091Z,19.73
2019-06-01T06:47:53.531Z,19.79
2019-06-01T06:50:23.447Z,19.76
2019-06-01T06:52:52.953Z,20.13
2019-06-01T06:55:22.033Z,20.20
2019-06-01T06:57:50.629Z,20.14
2019-06-01T07:00:20.502Z,20.24
2019-06-01T07:02:49.269Z,20.35
2019-06-01T07:05:17.665Z,20.53
2019-06-01T07:07:46.137Z,20.81
2019-06-01T07:10:14.835Z,20.57
2019-06-01T07:12:43.346Z,20.38
2019-06-01T07:15:12.162Z,20.51
2019-06-01T07:17:40.941Z,20.46
2019-06-01T07:20:09.607Z,20.60
2019-06-01T07:22:38.183Z,20.60
2019-06-01T07:25:06.926Z,20.87
2019-06-01T07:27:35.525Z,20.73
2019-06-01T07:30:05.161Z,20.76
2019-06-01T07:32:33.757Z,20.81
2019-06-01T07:35:02.301Z,21.18
2019-06-01T07:37:30.896Z,21.03
2019-06-01T07:39:59.393Z,21.31
2019-06-01T07:42:29.418Z,21.22
2019-06-01T07:44:58.118Z,21.34
2019-06-01T07:47:27.356Z,21.19
2019-06-01T07:49:56.184Z,21.16
2019-06-01T07:52:24.652Z,21.23
2019-06-01T07:54:53.134Z,21.46
2019-06-01T07:57:21.743Z,21.74
2019-06-01T07:59:50.302Z,21.87
2019-06-01T08:02:18.887Z,21.70
2019-06-01T08:04:54.090Z,21.85
2019-06-01T08:07:17.953Z,21.86
2019-06-01T08:09:46.349Z,21.67
2019-06-01T08:12:14.861Z,21.64
2019-06-01T08:14:43.469Z,21.80
2019-06-01T08:17:12.068Z,21.80
2019-06-01T08:19:40.648Z,21.92
2019-06-01T08:22:09.154Z,22.18
2019-06-01T08:24:37.645Z,22.10
2019-06-01T08:27:06.134Z,21.98
2019-06-01T08:29:34.636Z,21.96
2019-06-01T08:32:03.131Z,22.14
2019-06-01T08:34:33.041Z,22.29
2019-06-01T08:37:01.717Z,22.03
2019-06-01T08:39:31.449Z,22.20
2019-06-01T08:42:00.105Z,22.27
2019-06-01T08:44:29.595Z,22.18
2019-06-01T08:46:58.296Z,22.51
2019-06-01T08:49:28.012Z,22.61
2019-06-01T08:51:56.686Z,22.78
2019-06-01T08:54:25.982Z,22.63
2019-06-01T08:56:54.543Z,22.53
2019-06-01T08:59:24.216Z,22.37
2019-06-01T09:01:52.842Z,22.07
2019-06-01T09:04:21.288Z,22.20
2019-06-01T09:06:49.701Z,22.38
2019-06-01T09:09:18.289Z,22.60
2019-06-01T09:11:46.784Z,22.45
2019-06-01T09:14:15.265Z,22.27
2019-06-01T09:16:43.855Z,22.69
2019-06-01T09:19:12.352Z,22.90
2019-06-01T09:21:40.912Z,22.88
2019-06-01T09:24:09.499Z,22.63
2019-06-01T09:26:38.091Z,22.38
2019-06-01T09:29:06.574Z,22.69
2019-06-01T09:31:36.671Z,22.64
2019-06-01T09:34:05.353Z,22.85
2019-06-01T09:36:34.514Z,22.72
2019-06-01T09:39:05.475Z,23.02
2019-06-01T09:41:34.562Z,22.99
2019-06-01T09:44:03.428Z,22.85
2019-06-01T09:46:33.841Z,23.06
2019-06-01T09:49:02.563Z,23.08
2019-06-01T09:51:31.415Z,22.92
2019-06-01T09:53:59.954Z,22.96
2019-06-01T09:56:30.856Z,22.87
2019-06-01T09:58:58.838Z,22.97
2019-06-01T10:01:28.085Z,23.15
2019-06-01T10:03:56.762Z,23.47
2019-06-01T10:06:25.318Z,23.64
2019-06-01T10:08:53.771Z,23.72
2019-06-01T10:11:22.252Z,23.76
2019-06-01T10:13:50.964Z,23.60
2019-06-01T10:16:19.857Z,23.74
2019-06-01T10:18:48.444Z,23.56
2019-06-01T10:21:16.932Z,23.44
2019-06-01T10:23:49.137Z,23.61
2019-06-01T10:26:16.073Z,23.80
2019-06-01T10:28:44.665Z,23.50
2019-06-01T10:31:13.171Z,23.89
2019-06-01T10:33:43.207Z,24.05
2019-06-01T10:36:20.653Z,23.54
2019-06-01T10:38:42.422Z,23.75
2019-06-01T10:41:10.920Z,23.81
2019-06-01T10:43:39.791Z,23.94
2019-06-01T10:46:08.611Z,24.14
2019-06-01T10:48:38.100Z,24.28
2019-06-01T10:51:06.577Z,23.99
2019-06-01T10:53:36.368Z,23.82
2019-06-01T10:56:04.922Z,23.99
2019-06-01T10:58:34.572Z,23.99
2019-06-01T11:01:03.398Z,23.57
2019-06-01T11:03:32.509Z,23.92
2019-06-01T11:06:01.082Z,23.93
2019-06-01T11:08:29.696Z,23.72
2019-06-01T11:10:58.198Z,24.08
2019-06-01T11:13:26.797Z,24.11
2019-06-01T11:15:55.501Z,24.30
2019-06-01T11:18:24.198Z,24.42
2019-06-01T11:20:52.690Z,24.29
2019-06-01T11:23:21.289Z,24.45
2019-06-01T11:25:49.786Z,24.45
2019-06-01T11:28:18.296Z,24.39
2019-06-01T11:30:46.885Z,24.64
2019-06-01T11:33:15.418Z,24.45
2019-06-01T11:35:45.312Z,24.54
2019-06-01T11:38:14.144Z,24.60
2019-06-01T11:40:42.906Z,24.68
2019-06-01T11:43:11.394Z,24.66
2019-06-01T11:45:40.781Z,24.65
2019-06-01T11:48:09.355Z,24.22
2019-06-01T11:50:38.747Z,24.47
2019-06-01T11:53:07.442Z,24.57
2019-06-01T11:55:37.041Z,24.80
2019-06-01T11:58:05.794Z,25.05
2019-06-01T12:00:35.382Z,24.95
2019-06-01T12:03:04.174Z,24.76
2019-06-01T12:05:32.630Z,24.90
2019-06-01T12:08:01.132Z,25.24
2019-06-01T12:10:29.633Z,25.07
2019-06-01T12:12:58.229Z,25.08
2019-06-01T12:15:27.324Z,24.85
2019-06-01T12:17:56.162Z,24.70
2019-06-01T12:20:24.735Z,24.85
2019-06-01T12:22:53.213Z,24.83
2019-06-01T12:25:21.738Z,24.84
2019-06-01T12:27:50.231Z,24.84
2019-06-01T12:30:18.935Z,25.13
2019-06-01T12:32:48.868Z,25.12
2019-06-01T12:35:17.427Z,25.00
2019-06-01T12:38:04.538Z,24.82
2019-06-01T12:40:16.794Z,24.88
2019-06-01T12:42:45.923Z,25.09
2019-06-01T12:45:22.475Z,25.13
2019-06-01T12:47:54.363Z,25.15
2019-06-01T12:50:19.653Z,25.16
2019-06-01T12:52:48.669Z,25.20
2019-06-01T12:55:17.235Z,25.07
2019-06-01T12:57:47.060Z,25.10
2019-06-01T13:00:16.388Z,25.33
2019-06-01T13:02:51.087Z,25.35
2019-06-01T13:05:16.175Z,25.47
2019-06-01T13:07:57.790Z,25.52
2019-06-01T13:10:15.657Z,25.51
2019-06-01T13:12:45.180Z,25.29
2019-06-01T13:15:14.259Z,25.19
2019-06-01T13:17:43.156Z,25.35
2019-06-01T13:20:12.840Z,25.50
2019-06-01T13:22:41.522Z,25.38
2019-06-01T13:25:10.243Z,25.39
2019-06-01T13:27:40.946Z,25.37
2019-06-01T13:30:09.548Z,25.53
2019-06-01T13:32:38.038Z,25.21
2019-06-01T13:35:06.861Z,25.16
2019-06-01T13:37:35.351Z,25.34
2019-06-01T13:40:04.385Z,25.51
2019-06-01T13:42:33.079Z,25.61
2019-06-01T13:45:02.042Z,25.95
2019-06-01T13:47:30.553Z,25.68
2019-06-01T13:49:58.961Z,25.86
2019-06-01T13:52:27.560Z,25.81
2019-06-01T13:54:56.077Z,25.57
2019-06-01T13:57:24.557Z,25.68
2019-06-01T13:59:53.160Z,25.64
2019-06-01T14:02:21.972Z,25.67
2019-06-01T14:04:50.442Z,25.76
2019-06-01T14:07:19.024Z,25.73
2019-06-01T14:09:47.617Z,25.79
2019-06-01T14:12:16.213Z,26.07
2019-06-01T14:14:45.356Z,26.18
2019-06-01T14:17:13.862Z,26.00
2019-06-01T14:19:42.418Z,25.88
2019-06-01T14:22:11.017Z,26.00
2019-06-01T14:24:43.587Z,25.98
2019-06-01T14:27:09.792Z,25.97
2019-06-01T14:29:38.414Z,25.82
2019-06-01T14:32:07.000Z,26.02
2019-06-01T14:34:35.463Z,26.13
2019-06-01T14:37:03.978Z,26.24
2019-06-01T14:39:32.600Z,26.10
2019-06-01T14:42:01.114Z,26.16
2019-06-01T14:44:29.760Z,25.83
2019-06-01T14:47:03.856Z,26.02
2019-06-01T14:49:28.531Z,25.85
2019-06-01T14:51:57.857Z,25.80
2019-06-01T14:54:26.664Z,25.92
2019-06-01T14:56:55.886Z,25.82
2019-06-01T14:59:24.466Z,25.86
2019-06-01T15:01:54.149Z,26.00
2019-06-01T15:04:22.839Z,25.92
2019-06-01T15:06:52.302Z,26.26
2019-06-01T15:09:21.078Z,26.08
2019-06-01T15:11:50.600Z,26.32
2019-06-01T15:14:19.812Z,26.11
2019-06-01T15:16:49.523Z,26.15
2019-06-01T15:19:18.311Z,26.04
2019-06-01T15:21:46.810Z,25.93
2019-06-01T15:24:15.387Z,25.91
2019-06-01T15:26:43.885Z,26.12
2019-06-01T15:29:12.696Z,25.99
2019-06-01T15:31:41.514Z,25.74
2019-06-01T15:34:10.018Z,25.92
2019-06-01T15:36:38.381Z,25.99
2019-06-01T15:39:23.463Z,25.95
2019-06-01T15:41:38.118Z,26.00
2019-06-01T15:44:06.763Z,25.75
2019-06-01T15:46:35.429Z,25.75
2019-06-01T15:49:04.076Z,25.83
2019-06-01T15:51:32.570Z,25.64
2019-06-01T15:54:01.185Z,25.99
2019-06-01T15:56:29.650Z,26.10
2019-06-01T15:58:59.789Z,25.80
2019-06-01T16:01:28.678Z,25.82
2019-06-01T16:03:57.492Z,25.98
2019-06-01T16:06:26.043Z,26.00
2019-06-01T16:08:55.265Z,25.78
2019-06-01T16:11:23.972Z,25.79
2019-06-01T16:13:53.613Z,25.78
2019-06-01T16:16:22.450Z,25.72
2019-06-01T16:18:51.066Z,25.66
2019-06-01T16:21:19.671Z,25.60
2019-06-01T16:23:50.345Z,25.72
2019-06-01T16:26:18.717Z,25.82
2019-06-01T16:28:47.399Z,25.61
2019-06-01T16:31:16.836Z,25.40
2019-06-01T16:33:45.334Z,25.46
2019-06-01T16:36:13.931Z,25.72
2019-06-01T16:38:42.520Z,25.73
2019-06-01T16:41:11.008Z,25.58
2019-06-01T16:43:39.458Z,25.96
2019-06-01T16:46:08.046Z,25.73
2019-06-01T16:48:36.451Z,25.68
2019-06-01T16:51:05.904Z,25.68
2019-06-01T16:53:34.585Z,25.45
2019-06-01T16:56:04.050Z,25.70
2019-06-01T16:58:32.572Z,25.68
2019-06-01T17:01:02.561Z,25.56
2019-06-01T17:03:31.307Z,25.65
2019-06-01T17:06:00.555Z,25.66
2019-06-01T17:08:29.201Z,25.34
2019-06-01T17:10:58.678Z,25.41
2019-06-01T17:13:27.321Z,25.41
2019-06-01T17:15:56.842Z,25.56
2019-06-01T17:18:25.490Z,25.44
2019-06-01T17:20:57.165Z,25.42
2019-06-01T17:23:27.989Z,25.27
2019-06-01T17:25:56.207Z,25.22
2019-06-01T17:28:24.774Z,25.29
2019-06-01T17:30:53.533Z,25.33
2019-06-01T17:33:22.415Z,25.36
2019-06-01T17:35:51.025Z,25.28
2019-06-01T17:38:20.062Z,25.19
2019-06-01T17:40:48.565Z,25.12
2019-06-01T17:43:17.132Z,25.14
2019-06-01T17:45:45.685Z,25.11
2019-06-01T17:48:25.985Z,25.12
2019-06-01T17:50:44.877Z,25.13
2019-06-01T17:53:13.448Z,25.18
2019-06-01T17:55:42.235Z,25.08
2019-06-01T17:58:12.523Z,25.18
2019-06-01T18:00:41.595Z,25.10
2019-06-01T18:03:10.348Z,25.07
2019-06-01T18:05:38.998Z,24.99
2019-06-01T18:08:08.145Z,25.02
2019-06-01T18:10:52.690Z,25.04
2019-06-01T18:13:08.677Z,24.82
2019-06-01T18:15:38.135Z,24.84
2019-06-01T18:18:08.536Z,24.80
2019-06-01T18:20:37.559Z,24.82
2019-06-01T18:23:09.523Z,24.49
